createdAt,value
2023-02-06T00:01:51.032Z,71.42
2023-02-06T00:04:19.328Z,71.43
2023-02-06T00:06:47.608Z,71.52
2023-02-06T00:09:15.877Z,71.49
2023-02-06T00:11:44.264Z,71.48
2023-02-06T00:14:12.438Z,71.40
2023-02-06T00:16:40.619Z,71.49
2023-02-06T00:19:08.894Z,71.57
2023-02-06T00:21:37.059Z,71.68
2023-02-06T00:24:05.534Z,71.70
2023-02-06T00:26:33.622Z,71.80
2023-02-06T00:29:01.789Z,71.75
2023-02-06T00:31:30.175Z,71.80
2023-02-06T00:33:58.333Z,71.74
2023-02-06T00:36:27.235Z,71.84
2023-02-06T00:38:55.407Z,71.97
2023-02-06T00:41:23.657Z,72.01
2023-02-06T00:43:52.452Z,72.03
2023-02-06T00:46:21.297Z,71.96
2023-02-06T00:48:49.670Z,72.03
2023-02-06T00:51:17.701Z,71.94
2023-02-06T00:53:45.769Z,72.15
2023-02-06T00:56:14.769Z,72.07
2023-02-06T00:58:42.727Z,72.17
2023-02-06T01:01:13.074Z,72.09
2023-02-06T01:03:41.224Z,72.09
2023-02-06T01:06:10.887Z,72.12
2023-02-06T01:08:39.110Z,72.23
2023-02-06T01:11:17.919Z,72.09
2023-02-06T01:13:46.609Z,72.00
2023-02-06T01:16:21.921Z,72.06
2023-02-06T01:18:51.047Z,72.25
2023-02-06T01:21:22.065Z,72.28
2023-02-06T01:23:52.762Z,72.34
2023-02-06T01:26:24.674Z,72.29
2023-02-06T01:28:53.150Z,72.47
2023-02-06T01:31:28.249Z,72.53
2023-02-06T01:33:58.534Z,72.59
2023-02-06T01:36:27.383Z,72.39
2023-02-06T01:38:57.820Z,72.39
2023-02-06T01:41:26.098Z,72.46
2023-02-06T01:44:24.991Z,72.45
2023-02-06T01:46:57.053Z,72.47
2023-02-06T01:49:33.434Z,72.47
2023-02-06T01:52:11.635Z,72.55
2023-02-06T01:54:41.516Z,72.63
2023-02-06T01:57:12.215Z,72.62
2023-02-06T01:59:44.762Z,72.41
2023-02-06T02:02:14.377Z,72.50
2023-02-06T02:04:43.358Z,72.36
2023-02-06T02:07:23.102Z,72.35
2023-02-06T02:09:52.502Z,72.26
2023-02-06T02:12:20.885Z,72.17
2023-02-06T02:14:51.744Z,72.43
2023-02-06T02:17:31.972Z,72.42
2023-02-06T02:20:12.233Z,72.48
2023-02-06T02:22:51.764Z,72.61
2023-02-06T02:25:41.549Z,72.66
2023-02-06T02:28:34.446Z,72.56
2023-02-06T02:31:27.610Z,72.55
2023-02-06T02:34:41.010Z,72.68
2023-02-06T02:37:31.014Z,72.74
2023-02-06T02:40:14.410Z,72.97
2023-02-06T02:42:57.942Z,72.90
2023-02-06T02:45:33.666Z,72.77
2023-02-06T02:48:07.494Z,72.78
2023-02-06T02:50:37.443Z,72.82
2023-02-06T02:53:07.907Z,72.67
2023-02-06T02:55:37.383Z,72.64
2023-02-06T02:58:31.578Z,72.65
2023-02-06T03:01:06.181Z,72.60
2023-02-06T03:03:39.648Z,72.57
2023-02-06T03:06:49.598Z,72.46
2023-02-06T03:09:28.518Z,72.55
2023-02-06T03:12:23.480Z,72.57
2023-02-06T03:15:00.098Z,72.43
2023-02-06T03:17:53.143Z,72.50
2023-02-06T03:20:22.849Z,72.47
2023-02-06T03:22:52.982Z,72.42
2023-02-06T03:25:36.690Z,72.51
2023-02-06T03:28:12.067Z,72.59
2023-02-06T03:30:42.572Z,72.56
2023-02-06T03:33:13.933Z,72.43
2023-02-06T03:35:42.428Z,72.54
2023-02-06T03:38:11.213Z,72.66
2023-02-06T03:40:42.016Z,72.56
2023-02-06T03:43:14.092Z,72.65
2023-02-06T03:45:44.333Z,72.63
2023-02-06T03:48:22.317Z,72.31
2023-02-06T03:50:54.330Z,72.35
2023-02-06T03:53:26.135Z,72.48
2023-02-06T03:55:59.125Z,72.61
2023-02-06T03:58:27.400Z,72.64
2023-02-06T04:00:55.559Z,72.61
2023-02-06T04:03:24.466Z,72.57
2023-02-06T04:05:52.647Z,72.64
2023-02-06T04:08:20.712Z,72.59
2023-02-06T04:10:48.783Z,72.58
2023-02-06T04:13:16.849Z,72.67
2023-02-06T04:15:45.233Z,72.66
2023-02-06T04:18:13.305Z,72.54
2023-02-06T04:20:41.561Z,72.58
2023-02-06T04:23:09.649Z,72.52
2023-02-06T04:25:37.970Z,72.55
2023-02-06T04:28:06.148Z,72.65
2023-02-06T04:30:34.296Z,72.43
2023-02-06T04:33:02.443Z,72.32
2023-02-06T04:35:31.046Z,72.44
2023-02-06T04:37:59.117Z,72.27
2023-02-06T04:40:27.170Z,72.18
2023-02-06T04:42:55.352Z,72.39
2023-02-06T04:45:23.421Z,72.42
2023-02-06T04:47:51.786Z,72.39
2023-02-06T04:50:19.911Z,72.23
2023-02-06T04:52:48.034Z,72.06
2023-02-06T04:55:16.205Z,72.17
2023-02-06T04:57:44.072Z,72.12
2023-02-06T05:00:13.682Z,72.21
2023-02-06T05:02:42.071Z,72.21
2023-02-06T05:05:10.431Z,72.17
2023-02-06T05:07:38.681Z,72.03
2023-02-06T05:10:09.055Z,71.89
2023-02-06T05:12:37.410Z,71.97
2023-02-06T05:15:06.334Z,71.83
2023-02-06T05:17:34.980Z,71.96
2023-02-06T05:20:03.262Z,72.07
2023-02-06T05:22:31.268Z,71.95
2023-02-06T05:24:59.708Z,71.99
2023-02-06T05:27:27.792Z,71.86
2023-02-06T05:29:55.946Z,71.92
2023-02-06T05:32:24.013Z,71.88
2023-02-06T05:34:52.391Z,71.90
2023-02-06T05:37:20.564Z,71.93
2023-02-06T05:39:48.632Z,72.06
2023-02-06T05:42:16.804Z,72.13
2023-02-06T05:44:44.779Z,72.36
2023-02-06T05:47:12.832Z,72.15
2023-02-06T05:49:40.921Z,72.25
2023-02-06T05:52:09.414Z,72.47
2023-02-06T05:54:37.464Z,72.26
2023-02-06T05:57:05.773Z,72.08
2023-02-06T05:59:34.025Z,72.17
2023-02-06T06:02:02.713Z,71.93
2023-02-06T06:04:30.723Z,72.19
2023-02-06T06:07:00.091Z,72.55
2023-02-06T06:09:28.379Z,72.94
2023-02-06T06:11:56.531Z,71.74
2023-02-06T06:14:24.594Z,70.60
2023-02-06T06:16:52.980Z,68.43
2023-02-06T06:19:20.988Z,66.38
2023-02-06T06:21:49.431Z,64.05
2023-02-06T06:24:17.836Z,61.73
2023-02-06T06:26:45.981Z,62.12
2023-02-06T06:29:14.355Z,61.22
2023-02-06T06:31:42.462Z,60.04
2023-02-06T06:34:10.512Z,58.47
2023-02-06T06:36:38.609Z,59.17
2023-02-06T06:39:06.628Z,58.97
2023-02-06T06:41:34.717Z,59.95
2023-02-06T06:44:03.192Z,59.40
2023-02-06T06:46:31.357Z,59.80
2023-02-06T06:48:59.435Z,60.78
2023-02-06T06:51:30.022Z,61.05
2023-02-06T06:53:58.241Z,60.59
2023-02-06T06:56:27.223Z,61.55
2023-02-06T06:58:55.738Z,61.70
2023-02-06T07:01:23.812Z,61.57
2023-02-06T07:03:51.835Z,61.52
2023-02-06T07:06:20.124Z,60.19
2023-02-06T07:08:48.092Z,58.74
2023-02-06T07:11:18.308Z,57.24
2023-02-06T07:13:46.696Z,55.43
2023-02-06T07:16:14.983Z,54.15
2023-02-06T07:18:43.255Z,51.93
2023-02-06T07:21:15.922Z,51.35
2023-02-06T07:23:44.085Z,50.62
2023-02-06T07:26:13.010Z,50.91
2023-02-06T07:28:42.478Z,50.92
2023-02-06T07:31:11.165Z,50.27
2023-02-06T07:33:39.242Z,50.05
2023-02-06T07:36:18.583Z,50.92
2023-02-06T07:38:47.057Z,50.46
2023-02-06T07:41:16.262Z,50.87
2023-02-06T07:43:44.846Z,50.52
2023-02-06T07:46:13.426Z,49.40
2023-02-06T07:48:42.546Z,48.67
2023-02-06T07:51:10.574Z,48.50
2023-02-06T07:53:38.974Z,47.53
2023-02-06T07:56:13.399Z,46.89
2023-02-06T07:58:41.664Z,46.66
2023-02-06T08:01:10.608Z,45.11
2023-02-06T08:03:38.711Z,43.64
2023-02-06T08:06:11.602Z,42.66
2023-02-06T08:08:39.673Z,42.27
2023-02-06T08:11:09.800Z,40.99
2023-02-06T08:13:38.583Z,40.54
2023-02-06T08:16:09.743Z,39.63
2023-02-06T08:18:38.409Z,38.81
2023-02-06T08:21:10.747Z,38.48
2023-02-06T08:23:39.056Z,38.09
2023-02-06T08:26:08.969Z,37.09
2023-02-06T08:28:38.537Z,37.35
2023-02-06T08:31:35.394Z,36.50
2023-02-06T08:34:04.504Z,36.00
2023-02-06T08:36:33.508Z,35.73
2023-02-06T08:39:03.216Z,37.00
2023-02-06T08:41:39.686Z,36.79
2023-02-06T08:44:17.377Z,35.92
2023-02-06T08:46:48.189Z,35.51
2023-02-06T08:49:20.457Z,35.99
2023-02-06T08:51:52.452Z,35.48
2023-02-06T08:54:23.030Z,34.98
2023-02-06T08:56:51.961Z,34.90
2023-02-06T08:59:20.651Z,33.13
2023-02-06T09:01:49.574Z,32.96
2023-02-06T09:04:19.266Z,33.51
2023-02-06T09:06:52.332Z,33.71
2023-02-06T09:09:21.288Z,33.79
2023-02-06T09:11:49.254Z,33.76
2023-02-06T09:14:18.086Z,33.99
2023-02-06T09:16:46.254Z,34.37
2023-02-06T09:19:14.344Z,34.12
2023-02-06T09:21:42.592Z,33.54
2023-02-06T09:24:10.914Z,33.08
2023-02-06T09:26:58.132Z,32.43
2023-02-06T09:29:34.062Z,31.15
2023-02-06T09:32:02.327Z,31.13
2023-02-06T09:34:30.808Z,31.47
2023-02-06T09:36:58.865Z,31.14
2023-02-06T09:39:27.048Z,31.40
2023-02-06T09:42:03.208Z,30.73
2023-02-06T09:44:48.799Z,30.11
2023-02-06T09:47:39.489Z,29.78
2023-02-06T09:50:32.742Z,29.88
2023-02-06T09:53:21.708Z,30.41
2023-02-06T09:55:59.296Z,30.41
2023-02-06T09:58:42.632Z,29.34
2023-02-06T10:01:39.943Z,28.97
2023-02-06T10:04:34.850Z,29.37
2023-02-06T10:07:23.086Z,29.24
2023-02-06T10:09:58.477Z,28.94
2023-02-06T10:12:40.982Z,29.32
2023-02-06T10:15:21.036Z,28.97
2023-02-06T10:17:59.773Z,29.30
2023-02-06T10:20:38.718Z,29.25
2023-02-06T10:23:19.044Z,29.21
2023-02-06T10:26:02.379Z,29.32
2023-02-06T10:28:33.954Z,29.36
2023-02-06T10:31:11.201Z,29.30
2023-02-06T10:33:50.824Z,28.69
2023-02-06T10:36:33.976Z,28.87
2023-02-06T10:39:18.222Z,28.91
2023-02-06T10:42:16.913Z,29.34
2023-02-06T10:45:20.134Z,29.81
2023-02-06T10:47:59.462Z,29.62
2023-02-06T10:50:36.929Z,29.76
2023-02-06T10:53:17.901Z,29.50
2023-02-06T10:56:24.792Z,29.62
2023-02-06T10:58:59.009Z,29.95
2023-02-06T11:01:33.153Z,29.69
2023-02-06T11:04:52.693Z,30.27
2023-02-06T11:07:40.932Z,30.89
2023-02-06T11:10:14.489Z,30.79
2023-02-06T11:12:48.039Z,30.94
2023-02-06T11:15:40.273Z,30.96
2023-02-06T11:18:14.507Z,30.31
2023-02-06T11:20:44.942Z,29.58
2023-02-06T11:23:27.817Z,30.39
2023-02-06T11:26:14.487Z,30.63
2023-02-06T11:29:02.066Z,31.50
2023-02-06T11:31:45.262Z,31.68
2023-02-06T11:34:33.652Z,31.49
2023-02-06T11:37:07.473Z,31.66
2023-02-06T11:39:39.714Z,31.87
2023-02-06T11:42:26.108Z,32.76
2023-02-06T11:44:54.654Z,33.53
2023-02-06T11:47:38.104Z,34.28
2023-02-06T11:50:15.207Z,34.76
2023-02-06T11:52:46.873Z,34.39
2023-02-06T11:55:25.214Z,34.62
2023-02-06T11:58:13.620Z,34.71
2023-02-06T12:01:07.068Z,34.86
2023-02-06T12:03:51.840Z,35.18
2023-02-06T12:06:35.898Z,35.39
2023-02-06T12:09:11.731Z,35.33
2023-02-06T12:11:59.371Z,35.65
2023-02-06T12:14:42.908Z,35.28
2023-02-06T12:17:36.082Z,35.36
2023-02-06T12:20:17.370Z,35.95
2023-02-06T12:22:55.348Z,35.43
2023-02-06T12:25:26.382Z,34.69
2023-02-06T12:27:59.995Z,34.65
2023-02-06T12:30:45.684Z,34.54
2023-02-06T12:33:48.015Z,35.04
2023-02-06T12:36:22.556Z,36.06
2023-02-06T12:39:02.811Z,36.15
2023-02-06T12:41:40.130Z,36.06
2023-02-06T12:44:33.979Z,36.40
2023-02-06T12:47:23.866Z,36.33
2023-02-06T12:50:20.696Z,36.05
2023-02-06T12:53:03.821Z,36.71
2023-02-06T12:55:37.377Z,36.31
2023-02-06T12:58:23.668Z,36.78
2023-02-06T13:01:01.535Z,36.84
2023-02-06T13:03:55.805Z,36.83
2023-02-06T13:06:29.310Z,37.45
2023-02-06T13:08:57.570Z,37.65
2023-02-06T13:11:28.956Z,38.07
2023-02-06T13:14:07.287Z,38.64
2023-02-06T13:17:11.710Z,39.18
2023-02-06T13:19:39.844Z,39.24
2023-02-06T13:22:10.887Z,39.46
2023-02-06T13:24:41.449Z,39.73
2023-02-06T13:27:09.491Z,39.68
2023-02-06T13:29:39.660Z,39.82
2023-02-06T13:32:10.577Z,40.48
2023-02-06T13:34:44.740Z,40.68
2023-02-06T13:37:33.414Z,41.54
2023-02-06T13:40:22.975Z,41.72
2023-02-06T13:42:50.950Z,41.65
2023-02-06T13:45:23.862Z,42.40
2023-02-06T13:48:10.153Z,42.23
2023-02-06T13:50:52.855Z,42.61
2023-02-06T13:53:39.338Z,42.66
2023-02-06T13:56:33.217Z,42.73
2023-02-06T13:59:07.510Z,42.95
2023-02-06T14:01:36.891Z,43.14
2023-02-06T14:04:10.343Z,43.72
2023-02-06T14:06:55.314Z,44.73
2023-02-06T14:09:43.085Z,44.23
2023-02-06T14:12:35.669Z,44.70
2023-02-06T14:15:03.657Z,44.77
2023-02-06T14:17:57.011Z,44.77
2023-02-06T14:20:49.052Z,45.18
2023-02-06T14:23:38.102Z,46.13
2023-02-06T14:26:23.266Z,46.82
2023-02-06T14:28:57.200Z,46.82
2023-02-06T14:31:38.622Z,47.02
2023-02-06T14:34:30.259Z,47.27
2023-02-06T14:37:01.218Z,49.14
2023-02-06T14:39:47.516Z,48.76
2023-02-06T14:42:29.224Z,48.52
2023-02-06T14:45:02.192Z,48.94
2023-02-06T14:47:40.231Z,49.00
2023-02-06T14:50:19.326Z,49.06
2023-02-06T14:53:03.475Z,49.99
2023-02-06T14:55:37.845Z,49.32
2023-02-06T14:58:19.377Z,49.72
2023-02-06T15:00:47.736Z,49.79
2023-02-06T15:03:21.559Z,50.03
2023-02-06T15:06:06.632Z,49.92
2023-02-06T15:08:35.060Z,50.04
2023-02-06T15:11:07.044Z,49.87
2023-02-06T15:13:36.476Z,49.90
2023-02-06T15:16:09.380Z,49.93
2023-02-06T15:18:37.862Z,50.46
2023-02-06T15:21:09.397Z,51.29
2023-02-06T15:24:07.859Z,51.35
2023-02-06T15:26:53.335Z,50.85
2023-02-06T15:29:27.000Z,50.97
2023-02-06T15:32:00.828Z,51.46
2023-02-06T15:34:29.304Z,51.40
2023-02-06T15:36:57.710Z,51.76
2023-02-06T15:39:26.624Z,51.92
2023-02-06T15:41:55.406Z,52.19
2023-02-06T15:44:36.074Z,52.43
2023-02-06T15:47:07.937Z,54.18
2023-02-06T15:49:44.701Z,55.23
2023-02-06T15:52:15.647Z,55.88
2023-02-06T15:54:57.849Z,56.67
2023-02-06T15:57:34.188Z,57.35
2023-02-06T16:00:03.022Z,58.92
2023-02-06T16:02:41.202Z,59.69
2023-02-06T16:05:24.174Z,57.88
2023-02-06T16:07:52.394Z,57.88
2023-02-06T16:10:22.835Z,58.55
2023-02-06T16:12:52.530Z,58.37
2023-02-06T16:15:26.545Z,59.80
2023-02-06T16:17:55.740Z,60.50
2023-02-06T16:20:27.060Z,61.24
2023-02-06T16:23:11.743Z,62.08
2023-02-06T16:25:39.885Z,62.78
2023-02-06T16:28:24.383Z,62.81
2023-02-06T16:31:03.217Z,63.48
2023-02-06T16:33:39.003Z,64.06
2023-02-06T16:36:07.836Z,64.56
2023-02-06T16:38:35.904Z,64.36
2023-02-06T16:41:04.170Z,64.31
2023-02-06T16:43:32.293Z,63.84
2023-02-06T16:46:02.362Z,64.32
2023-02-06T16:48:30.485Z,65.04
2023-02-06T16:50:59.529Z,65.61
2023-02-06T16:53:28.877Z,65.54
2023-02-06T16:55:57.102Z,66.02
2023-02-06T16:58:27.342Z,65.60
2023-02-06T17:00:55.602Z,64.52
2023-02-06T17:03:24.382Z,64.59
2023-02-06T17:05:54.587Z,64.46
2023-02-06T17:08:24.835Z,63.81
2023-02-06T17:10:53.008Z,63.65
2023-02-06T17:13:23.938Z,63.46
2023-02-06T17:15:53.362Z,63.83
2023-02-06T17:18:23.372Z,65.26
2023-02-06T17:20:53.254Z,65.86
2023-02-06T17:23:21.372Z,65.33
2023-02-06T17:25:52.115Z,64.89
2023-02-06T17:28:20.676Z,65.05
2023-02-06T17:30:51.081Z,64.95
2023-02-06T17:33:19.578Z,65.20
2023-02-06T17:35:48.571Z,65.53
2023-02-06T17:38:16.537Z,65.41
2023-02-06T17:40:44.732Z,64.70
2023-02-06T17:43:13.179Z,64.37
2023-02-06T17:45:41.562Z,64.42
2023-02-06T17:48:09.736Z,64.56
2023-02-06T17:50:40.802Z,64.37
2023-02-06T17:53:13.880Z,64.04
2023-02-06T17:55:42.032Z,63.88
2023-02-06T17:58:10.415Z,63.70
2023-02-06T18:00:39.421Z,63.61
2023-02-06T18:03:07.867Z,63.73
2023-02-06T18:05:36.522Z,63.68
2023-02-06T18:08:05.052Z,64.21
2023-02-06T18:10:33.241Z,64.06
2023-02-06T18:13:01.289Z,63.92
2023-02-06T18:15:31.734Z,63.78
2023-02-06T18:18:00.237Z,63.83
2023-02-06T18:20:28.376Z,63.46
2023-02-06T18:22:56.438Z,63.19
2023-02-06T18:25:24.910Z,63.58
2023-02-06T18:27:52.994Z,63.29
2023-02-06T18:30:21.086Z,63.44
2023-02-06T18:32:49.239Z,63.27
2023-02-06T18:35:17.514Z,63.14
2023-02-06T18:37:45.690Z,63.14
2023-02-06T18:40:13.877Z,63.53
2023-02-06T18:42:51.322Z,63.80
2023-02-06T18:45:21.841Z,63.64
2023-02-06T18:47:51.688Z,63.80
2023-02-06T18:50:22.950Z,63.49
2023-02-06T18:52:51.515Z,63.28
2023-02-06T18:55:20.302Z,63.66
2023-02-06T18:57:48.683Z,63.46
2023-02-06T19:00:20.225Z,63.35
2023-02-06T19:02:49.117Z,63.87
2023-02-06T19:05:18.303Z,63.71
2023-02-06T19:07:52.385Z,63.78
2023-02-06T19:10:21.799Z,64.09
2023-02-06T19:12:50.431Z,63.98
2023-02-06T19:15:18.702Z,64.47
2023-02-06T19:17:46.805Z,64.55
2023-02-06T19:20:15.663Z,64.58
2023-02-06T19:22:43.826Z,64.56
2023-02-06T19:25:14.458Z,64.46
2023-02-06T19:27:43.070Z,64.73
2023-02-06T19:30:13.235Z,64.44
2023-02-06T19:32:41.584Z,64.93
2023-02-06T19:35:12.062Z,64.72
2023-02-06T19:37:40.619Z,64.72
2023-02-06T19:40:09.347Z,64.70
2023-02-06T19:42:38.906Z,64.19
2023-02-06T19:45:07.361Z,64.43
2023-02-06T19:47:36.307Z,64.75
2023-02-06T19:50:05.296Z,64.81
2023-02-06T19:52:35.398Z,65.10
2023-02-06T19:55:04.308Z,65.16
2023-02-06T19:57:32.619Z,64.93
2023-02-06T20:00:00.660Z,65.11
2023-02-06T20:02:29.290Z,65.42
2023-02-06T20:04:58.043Z,65.08
2023-02-06T20:07:27.003Z,64.61
2023-02-06T20:09:56.050Z,64.74
2023-02-06T20:12:24.282Z,65.46
2023-02-06T20:14:52.670Z,65.73
2023-02-06T20:17:20.727Z,65.51
2023-02-06T20:19:48.887Z,65.68
2023-02-06T20:22:17.080Z,65.73
2023-02-06T20:24:45.561Z,65.69
2023-02-06T20:27:15.373Z,66.21
2023-02-06T20:29:45.832Z,66.42
2023-02-06T20:32:16.750Z,66.05
2023-02-06T20:34:45.426Z,65.94
2023-02-06T20:37:13.590Z,66.00
2023-02-06T20:39:41.762Z,65.89
2023-02-06T20:42:09.728Z,65.64
2023-02-06T20:44:37.909Z,65.56
2023-02-06T20:47:06.165Z,65.59
2023-02-06T20:49:34.251Z,65.85
2023-02-06T20:52:03.462Z,66.05
2023-02-06T20:54:31.627Z,66.13
2023-02-06T20:57:00.612Z,66.34
2023-02-06T20:59:30.527Z,66.45
2023-02-06T21:01:59.023Z,66.68
2023-02-06T21:04:27.182Z,66.41
2023-02-06T21:06:55.542Z,66.65
2023-02-06T21:09:23.728Z,66.51
2023-02-06T21:11:51.871Z,66.35
2023-02-06T21:14:20.690Z,66.47
2023-02-06T21:16:49.787Z,66.33
2023-02-06T21:19:20.013Z,66.21
2023-02-06T21:21:49.373Z,66.38
2023-02-06T21:24:18.199Z,66.06
2023-02-06T21:26:46.574Z,66.22
2023-02-06T21:29:15.682Z,66.22
2023-02-06T21:31:44.979Z,66.26
2023-02-06T21:34:19.535Z,66.56
2023-02-06T21:36:48.550Z,66.72
2023-02-06T21:39:20.225Z,66.68
2023-02-06T21:41:53.889Z,66.67
2023-02-06T21:44:24.553Z,66.58
2023-02-06T21:46:53.403Z,66.45
2023-02-06T21:49:21.941Z,66.74
2023-02-06T21:51:51.346Z,66.72
2023-02-06T21:54:19.739Z,66.60
2023-02-06T21:56:47.807Z,66.57
2023-02-06T21:59:16.178Z,66.36
2023-02-06T22:01:44.890Z,65.99
2023-02-06T22:04:13.081Z,66.15
2023-02-06T22:06:42.137Z,66.37
2023-02-06T22:09:15.848Z,66.20
2023-02-06T22:11:45.013Z,66.13
2023-02-06T22:14:18.013Z,66.13
2023-02-06T22:16:46.947Z,66.33
2023-02-06T22:19:15.991Z,66.47
2023-02-06T22:21:44.480Z,66.48
2023-02-06T22:24:13.371Z,66.50
2023-02-06T22:26:41.741Z,66.71
2023-02-06T22:29:16.008Z,66.65
2023-02-06T22:31:45.161Z,66.94
2023-02-06T22:34:20.289Z,66.96
2023-02-06T22:36:51.269Z,66.77
2023-02-06T22:39:19.933Z,67.14
2023-02-06T22:41:49.068Z,67.02
2023-02-06T22:44:19.741Z,66.72
2023-02-06T22:46:51.552Z,66.99
2023-02-06T22:49:21.605Z,67.05
2023-02-06T22:51:49.968Z,66.86
2023-02-06T22:54:18.325Z,66.86
2023-02-06T22:56:46.443Z,66.48
2023-02-06T22:59:20.765Z,66.62
2023-02-06T23:01:51.900Z,66.63
2023-02-06T23:04:21.300Z,66.43
2023-02-06T23:06:50.786Z,66.47
2023-02-06T23:09:27.646Z,66.74
2023-02-06T23:11:59.987Z,66.61
2023-02-06T23:14:30.790Z,66.43
2023-02-06T23:17:03.368Z,66.28
2023-02-06T23:19:31.755Z,66.58
2023-02-06T23:22:00.135Z,66.46
2023-02-06T23:24:28.206Z,66.46
2023-02-06T23:26:56.261Z,66.57
2023-02-06T23:29:25.158Z,66.37
2023-02-06T23:31:54.308Z,66.49
2023-02-06T23:34:24.621Z,66.66
2023-02-06T23:36:53.385Z,66.85
2023-02-06T23:39:21.753Z,66.90
2023-02-06T23:41:50.425Z,67.09
2023-02-06T23:44:18.908Z,66.75
2023-02-06T23:46:48.006Z,66.74
2023-02-06T23:49:16.543Z,66.86
2023-02-06T23:51:45.047Z,66.82
2023-02-06T23:54:13.127Z,66.96
2023-02-06T23:56:41.226Z,66.83
2023-02-06T23:59:10.693Z,66.88
